createdAt,value
2022-10-11T00:03:21.750Z,100389.61
2022-10-11T00:08:24.384Z,100374.31
2022-10-11T00:13:28.051Z,100381.59
2022-10-11T00:18:30.989Z,100378.67
2022-10-11T00:23:34.261Z,100373.85
2022-10-11T00:28:37.978Z,100380.83
2022-10-11T00:33:40.828Z,100374.62
2022-10-11T00:38:45.008Z,100374.02
2022-10-11T00:43:47.916Z,100379.70
2022-10-11T00:49:12.511Z,100373.83
2022-10-11T00:54:19.006Z,100369.04
2022-10-11T00:59:26.468Z,100374.70
2022-10-11T01:04:29.144Z,100370.15
2022-10-11T01:09:32.175Z,100362.06
2022-10-11T01:14:37.821Z,100357.41
2022-10-11T01:19:58.461Z,100363.09
2022-10-11T01:25:27.826Z,100363.71
2022-10-11T01:30:33.291Z,100362.98
2022-10-11T01:35:47.101Z,100359.72
2022-10-11T01:41:06.957Z,100354.41
2022-10-11T01:46:11.078Z,100354.65
2022-10-11T01:51:14.161Z,100348.98
2022-10-11T01:56:49.328Z,100341.93
2022-10-11T02:02:10.827Z,100342.60
2022-10-11T02:07:39.790Z,100345.42
2022-10-11T02:12:47.959Z,100343.23
2022-10-11T02:17:56.375Z,100342.05
2022-10-11T02:23:08.920Z,100351.36
2022-10-11T02:28:16.669Z,100352.69
2022-10-11T02:33:25.318Z,100351.77
2022-10-11T02:38:34.545Z,100362.30
2022-10-11T02:43:41.631Z,100367.04
2022-10-11T02:48:44.238Z,100358.91
2022-10-11T02:53:46.919Z,100362.75
2022-10-11T02:58:49.712Z,100366.96
2022-10-11T03:03:52.424Z,100368.52
2022-10-11T03:08:55.075Z,100376.93
2022-10-11T03:13:57.819Z,100380.36
2022-10-11T03:19:00.448Z,100388.66
2022-10-11T03:24:03.518Z,100388.99
2022-10-11T03:29:06.196Z,100382.20
2022-10-11T03:34:09.406Z,100384.44
2022-10-11T03:39:12.094Z,100380.48
2022-10-11T03:44:14.776Z,100394.73
2022-10-11T03:49:17.432Z,100395.14
2022-10-11T03:54:20.113Z,100396.54
2022-10-11T03:59:22.743Z,100399.88
2022-10-11T04:04:25.533Z,100400.87
2022-10-11T04:09:28.602Z,100403.49
2022-10-11T04:14:31.412Z,100411.41
2022-10-11T04:19:34.126Z,100413.07
2022-10-11T04:24:36.828Z,100416.63
2022-10-11T04:29:39.464Z,100420.27
2022-10-11T04:34:42.198Z,100427.21
2022-10-11T04:39:45.351Z,100432.30
2022-10-11T04:44:48.604Z,100430.80
2022-10-11T04:49:51.275Z,100436.06
2022-10-11T04:54:53.920Z,100442.34
2022-10-11T04:59:56.619Z,100444.94
2022-10-11T05:04:59.575Z,100452.84
2022-10-11T05:10:02.606Z,100461.17
2022-10-11T05:15:06.429Z,100470.98
2022-10-11T05:20:10.087Z,100473.46
2022-10-11T05:25:12.803Z,100481.97
2022-10-11T05:30:15.566Z,100484.64
2022-10-11T05:35:18.266Z,100499.70
2022-10-11T05:40:20.931Z,100496.81
2022-10-11T05:45:23.664Z,100509.34
2022-10-11T05:50:26.481Z,100514.39
2022-10-11T05:55:29.691Z,100521.75
2022-10-11T06:00:32.327Z,100530.86
2022-10-11T06:05:36.394Z,100538.23
2022-10-11T06:10:39.047Z,100545.09
2022-10-11T06:15:41.862Z,100551.52
2022-10-11T06:20:44.532Z,100560.15
2022-10-11T06:25:59.652Z,100570.80
2022-10-11T06:31:04.648Z,100576.04
2022-10-11T06:36:11.914Z,100586.44
2022-10-11T06:41:20.902Z,100595.43
2022-10-11T06:46:25.851Z,100606.53
2022-10-11T06:51:30.226Z,100612.38
2022-10-11T06:56:33.199Z,100620.16
2022-10-11T07:01:37.643Z,100622.77
2022-10-11T07:17:35.977Z,100648.91
2022-10-11T07:22:45.886Z,100656.61
2022-10-11T07:28:02.020Z,100666.13
2022-10-11T07:38:35.236Z,100685.27
2022-10-11T07:43:38.786Z,100690.83
2022-10-11T07:48:41.859Z,100698.05
2022-10-11T07:53:53.204Z,100708.00
2022-10-11T07:58:59.857Z,100715.70
2022-10-11T08:04:05.401Z,100724.02
2022-10-11T08:09:19.969Z,100729.84
2022-10-11T08:14:42.635Z,100738.05
2022-10-11T08:19:45.480Z,100743.87
2022-10-11T08:24:53.685Z,100756.36
2022-10-11T08:30:02.996Z,100756.50
2022-10-11T08:35:07.715Z,100760.96
2022-10-11T08:40:16.096Z,100766.54
2022-10-11T08:45:30.232Z,100769.56
2022-10-11T08:50:33.766Z,100775.30
2022-10-11T08:55:45.257Z,100783.91
2022-10-11T09:00:53.171Z,100793.73
2022-10-11T09:06:08.284Z,100796.89
2022-10-11T09:11:23.971Z,100804.24
2022-10-11T09:16:47.756Z,100812.23
2022-10-11T09:22:30.211Z,100817.59
2022-10-11T09:28:01.304Z,100819.86
2022-10-11T09:33:15.325Z,100824.40
2022-10-11T09:38:24.677Z,100831.27
2022-10-11T09:43:27.654Z,100837.64
2022-10-11T09:48:39.671Z,100838.73
2022-10-11T09:53:56.894Z,100851.44
2022-10-11T09:59:10.619Z,100852.56
2022-10-11T10:04:17.183Z,100857.79
2022-10-11T10:09:24.990Z,100857.40
2022-10-11T10:14:30.187Z,100860.31
2022-10-11T10:19:44.772Z,100863.09
2022-10-11T10:24:50.688Z,100864.98
2022-10-11T10:30:08.739Z,100876.73
2022-10-11T10:35:34.547Z,100878.45
2022-10-11T10:40:57.666Z,100878.02
2022-10-11T10:46:16.421Z,100887.73
2022-10-11T10:51:38.717Z,100895.02
2022-10-11T10:57:04.022Z,100897.96
2022-10-11T11:02:40.261Z,100904.21
2022-10-11T11:07:52.645Z,100898.26
2022-10-11T11:13:38.515Z,100897.44
2022-10-11T11:19:54.488Z,100897.64
2022-10-11T11:25:22.601Z,100900.24
2022-10-11T11:30:41.720Z,100907.54
2022-10-11T11:35:53.447Z,100911.98
2022-10-11T11:41:02.295Z,100912.59
2022-10-11T11:46:13.479Z,100915.40
2022-10-11T11:51:31.774Z,100914.41
2022-10-11T11:57:03.522Z,100916.31
2022-10-11T12:02:45.728Z,100915.63
2022-10-11T12:07:51.768Z,100916.59
2022-10-11T12:13:38.275Z,100916.96
2022-10-11T12:18:49.014Z,100920.57
2022-10-11T12:23:56.219Z,100914.96
2022-10-11T12:29:25.876Z,100913.49
2022-10-11T12:35:18.896Z,100917.08
2022-10-11T12:40:41.839Z,100920.77
2022-10-11T12:45:51.194Z,100922.97
2022-10-11T12:51:38.642Z,100918.13
2022-10-11T12:57:40.491Z,100925.48
2022-10-11T13:02:52.962Z,100927.58
2022-10-11T13:08:05.488Z,100930.58
2022-10-11T13:13:21.702Z,100938.54
2022-10-11T13:18:27.488Z,100947.34
2022-10-11T13:23:39.784Z,100954.69
2022-10-11T13:28:44.618Z,100966.04
2022-10-11T13:33:48.293Z,100966.63
2022-10-11T13:39:01.871Z,100959.23
2022-10-11T13:44:04.880Z,100959.58
2022-10-11T13:49:48.479Z,100961.79
2022-10-11T13:55:03.881Z,100959.50
2022-10-11T14:00:43.397Z,100966.73
2022-10-11T14:11:42.041Z,100967.70
2022-10-11T14:17:11.931Z,100969.77
2022-10-11T14:22:37.734Z,100971.30
2022-10-11T14:27:49.106Z,100975.05
2022-10-11T14:32:54.956Z,100974.86
2022-10-11T14:37:57.918Z,100977.46
2022-10-11T14:43:00.695Z,100979.92
2022-10-11T14:48:04.335Z,100986.90
2022-10-11T14:53:07.699Z,100990.34
2022-10-11T14:58:11.849Z,100991.58
2022-10-11T15:03:14.541Z,101004.80
2022-10-11T15:08:17.667Z,101009.29
2022-10-11T15:13:20.329Z,101015.80
2022-10-11T15:18:23.050Z,101021.39
2022-10-11T15:23:25.755Z,101022.20
2022-10-11T15:28:32.573Z,101028.98
2022-10-11T15:33:35.645Z,101028.04
2022-10-11T15:38:38.332Z,101031.73
2022-10-11T15:43:42.607Z,101040.39
2022-10-11T15:48:46.703Z,101047.10
2022-10-11T15:53:49.403Z,101053.15
2022-10-11T15:58:52.056Z,101050.85
2022-10-11T16:03:54.832Z,101057.04
2022-10-11T16:08:57.532Z,101062.40
2022-10-11T16:14:00.154Z,101065.92
2022-10-11T16:19:02.907Z,101072.65
2022-10-11T16:24:05.691Z,101076.51
2022-10-11T16:29:08.381Z,101076.22
2022-10-11T16:34:11.053Z,101082.45
2022-10-11T16:39:16.937Z,101084.17
2022-10-11T16:44:21.433Z,101085.61
2022-10-11T16:49:27.346Z,101088.87
2022-10-11T16:54:31.795Z,101083.81
2022-10-11T16:59:35.073Z,101081.80
2022-10-11T17:04:37.756Z,101080.00
2022-10-11T17:09:44.107Z,101093.66
2022-10-11T17:14:48.021Z,101094.28
2022-10-11T17:19:50.833Z,101101.21
2022-10-11T17:24:53.543Z,101106.93
2022-10-11T17:29:56.259Z,101108.25
2022-10-11T17:35:02.023Z,101111.36
2022-10-11T17:40:06.356Z,101108.27
2022-10-11T17:45:09.504Z,101108.36
2022-10-11T17:50:12.184Z,101108.91
2022-10-11T17:55:15.132Z,101108.42
2022-10-11T18:00:17.885Z,101108.11
2022-10-11T18:05:20.543Z,101108.61
2022-10-11T18:10:23.867Z,101114.85
2022-10-11T18:15:30.773Z,101117.96
2022-10-11T18:20:33.773Z,101122.97
2022-10-11T18:25:36.777Z,101127.39
2022-10-11T18:30:47.362Z,101128.45
2022-10-11T18:35:50.116Z,101129.88
2022-10-11T18:40:52.750Z,101133.14
2022-10-11T18:46:06.369Z,101127.48
2022-10-11T18:51:16.236Z,101134.66
2022-10-11T18:56:26.776Z,101137.48
2022-10-11T19:01:38.610Z,101140.13
2022-10-11T19:06:43.834Z,101144.16
2022-10-11T19:11:46.653Z,101142.80
2022-10-11T19:16:51.626Z,101146.16
2022-10-11T19:21:54.471Z,101139.78
2022-10-11T19:27:02.223Z,101140.69
2022-10-11T19:32:05.748Z,101140.54
2022-10-11T19:37:13.225Z,101139.00
2022-10-11T19:42:15.976Z,101144.40
2022-10-11T19:47:18.736Z,101147.72
2022-10-11T19:52:21.525Z,101148.64
2022-10-11T19:57:24.211Z,101150.13
2022-10-11T20:02:26.983Z,101155.43
2022-10-11T20:07:29.883Z,101159.52
2022-10-11T20:12:34.024Z,101162.90
2022-10-11T20:17:49.304Z,101168.19
2022-10-11T20:22:53.604Z,101165.80
2022-10-11T20:27:56.608Z,101170.73
2022-10-11T20:32:59.243Z,101166.75
2022-10-11T20:38:02.117Z,101169.72
2022-10-11T20:43:04.836Z,101167.84
2022-10-11T20:48:07.496Z,101170.82
2022-10-11T20:53:15.545Z,101170.84
2022-10-11T20:58:19.771Z,101171.20
2022-10-11T21:03:22.336Z,101170.52
2022-10-11T21:08:25.082Z,101168.27
2022-10-11T21:13:27.892Z,101166.70
2022-10-11T21:18:30.790Z,101169.29
2022-10-11T21:23:34.526Z,101169.98
2022-10-11T21:28:38.574Z,101169.77
2022-10-11T21:33:43.620Z,101165.73
2022-10-11T21:38:46.595Z,101169.50
2022-10-11T21:43:49.565Z,101166.85
2022-10-11T21:48:52.365Z,101173.08
2022-10-11T21:53:57.570Z,101178.09
2022-10-11T21:59:00.319Z,101179.65
2022-10-11T22:04:05.071Z,101182.46
2022-10-11T22:09:08.669Z,101180.05
2022-10-11T22:14:12.096Z,101180.07
2022-10-11T22:19:15.627Z,101180.60
2022-10-11T22:24:18.308Z,101182.66
2022-10-11T22:29:20.949Z,101178.45
2022-10-11T22:34:23.571Z,101183.46
2022-10-11T22:39:26.236Z,101179.44
2022-10-11T22:44:28.875Z,101173.64
2022-10-11T22:49:31.575Z,101172.70
2022-10-11T22:54:34.275Z,101175.08
2022-10-11T22:59:36.915Z,101175.69
2022-10-11T23:04:39.589Z,101177.19
2022-10-11T23:09:42.216Z,101179.00
2022-10-11T23:14:44.869Z,101174.37
2022-10-11T23:19:47.552Z,101178.16
2022-10-11T23:24:50.246Z,101181.12
2022-10-11T23:29:52.904Z,101186.88
2022-10-11T23:34:55.722Z,101185.18
2022-10-11T23:39:58.422Z,101190.66
2022-10-11T23:45:01.045Z,101188.09
2022-10-11T23:50:04.046Z,101189.16
2022-10-11T23:55:06.950Z,101193.02
